Time;durP1;ratioP1;P1;durP2;ratioP2;P2;SDS_P1;SDS_P2;PMS_P1;PMS_P2;Temp;Humidity;BMP_temperature;BMP_pressure;BME280_temperature;BME280_humidity;BME280_pressure;Samples;Min_cycle;Max_cycle;Signal;HPM_P1;HPM_P2
2022/04/14 00:01:58;;;;;;;10.50;6.47;;;18.10;48.20;;;;;;5095329;28;20482;-91
2022/04/14 00:04:25;;;;;;;13.20;6.20;;;17.90;49.00;;;;;;5082693;28;20485;-91
2022/04/14 00:06:52;;;;;;;7.00;5.23;;;17.90;49.50;;;;;;5084087;28;20460;-88
2022/04/14 00:09:19;;;;;;;8.50;5.90;;;17.80;49.60;;;;;;5078623;28;20491;-90
2022/04/14 00:11:46;;;;;;;7.30;5.33;;;17.80;48.80;;;;;;5075339;28;20435;-87
2022/04/14 00:14:13;;;;;;;6.13;5.53;;;17.90;49.20;;;;;;5072643;28;20466;-88
2022/04/14 00:16:40;;;;;;;10.43;5.60;;;17.90;49.50;;;;;;5084396;28;20499;-88
2022/04/14 00:19:08;;;;;;;6.77;6.10;;;17.90;49.40;;;;;;5074390;28;20436;-88
2022/04/14 00:21:35;;;;;;;7.00;5.60;;;18.00;49.40;;;;;;5091312;28;20475;-88
2022/04/14 00:24:02;;;;;;;5.90;4.87;;;18.00;49.50;;;;;;5092183;28;20443;-87
2022/04/14 00:26:29;;;;;;;6.03;5.43;;;18.00;49.40;;;;;;5091293;28;20511;-89
2022/04/14 00:28:56;;;;;;;6.93;5.30;;;18.00;49.20;;;;;;5074576;28;20776;-88
2022/04/14 00:31:23;;;;;;;7.40;4.63;;;17.90;49.20;;;;;;5089346;28;20497;-88
2022/04/14 00:33:50;;;;;;;8.00;5.60;;;17.90;49.40;;;;;;5074450;28;20440;-89
2022/04/14 00:36:19;;;;;;;7.00;6.20;;;17.70;49.70;;;;;;5067239;28;20471;-88
2022/04/14 00:38:45;;;;;;;7.60;5.00;;;17.60;50.00;;;;;;5092305;28;20446;-88
2022/04/14 00:41:12;;;;;;;7.00;5.87;;;17.60;50.30;;;;;;5089815;28;20495;-90
2022/04/14 00:43:39;;;;;;;6.50;5.90;;;17.50;50.20;;;;;;5083991;28;20451;-88
2022/04/14 00:46:06;;;;;;;10.43;7.47;;;17.60;50.10;;;;;;5083762;28;20458;-89
2022/04/14 00:48:34;;;;;;;8.23;6.47;;;17.50;49.80;;;;;;5107371;27;20448;-87
2022/04/14 00:51:03;;;;;;;8.70;6.30;;;17.40;49.60;;;;;;5101266;28;20447;-88
2022/04/14 00:53:31;;;;;;;8.63;6.30;;;17.10;50.40;;;;;;5074929;28;20805;-90
2022/04/14 00:55:58;;;;;;;9.03;6.43;;;16.50;51.50;;;;;;5059239;28;20914;-88
2022/04/14 00:58:26;;;;;;;7.97;5.77;;;16.30;52.20;;;;;;5092891;28;21034;-88
2022/04/14 01:00:52;;;;;;;10.03;6.77;;;16.20;52.00;;;;;;5091951;28;20524;-90
2022/04/14 01:03:19;;;;;;;9.20;6.80;;;16.40;52.00;;;;;;5092286;28;20470;-88
2022/04/14 01:05:48;;;;;;;7.63;6.30;;;16.50;51.80;;;;;;5076884;28;20489;-88
2022/04/14 01:08:17;;;;;;;8.10;6.20;;;16.50;51.80;;;;;;5087095;28;20520;-88
2022/04/14 01:10:47;;;;;;;7.00;6.30;;;16.50;51.40;;;;;;5092116;28;20486;-88
2022/04/14 01:13:15;;;;;;;10.80;6.03;;;16.00;52.20;;;;;;5092299;28;20446;-88
2022/04/14 01:15:43;;;;;;;8.40;6.20;;;15.30;53.80;;;;;;5094963;28;20455;-87
2022/04/14 01:18:10;;;;;;;8.33;6.07;;;15.10;54.80;;;;;;5088289;28;20535;-87
2022/04/14 01:20:39;;;;;;;6.37;5.77;;;15.20;54.80;;;;;;5089889;28;20440;-88
2022/04/14 01:23:08;;;;;;;15.53;6.20;;;15.60;53.80;;;;;;5066274;28;20451;-89
2022/04/14 01:25:37;;;;;;;6.47;5.60;;;15.90;52.90;;;;;;5087597;28;20473;-88
2022/04/14 01:28:04;;;;;;;8.03;5.73;;;16.10;52.40;;;;;;5075700;28;20824;-89
2022/04/14 01:30:32;;;;;;;7.93;5.90;;;16.20;52.50;;;;;;5091667;28;20451;-89
2022/04/14 01:32:59;;;;;;;6.57;5.87;;;16.30;52.60;;;;;;5094570;28;20449;-88
2022/04/14 01:35:26;;;;;;;8.83;5.77;;;16.30;52.40;;;;;;5089545;28;20439;-87
2022/04/14 01:37:53;;;;;;;9.43;7.37;;;16.30;51.90;;;;;;5074200;28;20466;-89
2022/04/14 01:40:20;;;;;;;11.23;6.57;;;16.40;51.50;;;;;;5075707;28;20521;-88
2022/04/14 01:42:48;;;;;;;12.33;6.27;;;16.30;50.60;;;;;;5082727;28;20503;-87
2022/04/14 01:45:15;;;;;;;8.13;6.87;;;16.20;52.00;;;;;;5089665;28;20447;-88
2022/04/14 01:47:43;;;;;;;7.10;6.10;;;15.70;52.90;;;;;;5088814;28;20479;-87
2022/04/14 01:50:12;;;;;;;10.87;6.07;;;15.80;52.90;;;;;;5082802;28;20846;-88
2022/04/14 01:52:41;;;;;;;11.70;6.50;;;15.90;52.70;;;;;;5091299;28;21126;-89
2022/04/14 01:55:09;;;;;;;8.30;6.20;;;16.10;52.10;;;;;;5100673;28;20524;-89
2022/04/14 01:57:36;;;;;;;5.63;5.10;;;16.20;51.60;;;;;;5091807;28;20462;-87
2022/04/14 02:00:08;;;;;;;6.07;5.47;;;16.30;51.30;;;;;;5092015;28;21020;-89
2022/04/14 02:02:34;;;;;;;7.10;6.40;;;16.30;51.00;;;;;;5083859;28;21247;-87
2022/04/14 02:05:01;;;;;;;8.07;6.73;;;16.40;50.70;;;;;;5079353;28;20456;-89
2022/04/14 02:07:28;;;;;;;15.77;6.93;;;16.30;50.90;;;;;;5074695;28;20486;-88
2022/04/14 02:09:56;;;;;;;8.67;5.80;;;16.30;50.90;;;;;;5090423;28;20466;-89
2022/04/14 02:12:24;;;;;;;7.33;6.33;;;16.30;51.00;;;;;;5084471;28;21225;-90
2022/04/14 02:14:52;;;;;;;8.47;7.57;;;16.20;51.70;;;;;;5076912;28;21179;-87
2022/04/14 02:17:20;;;;;;;8.93;5.83;;;15.90;51.80;;;;;;5077663;28;20467;-88
2022/04/14 02:19:48;;;;;;;9.03;6.53;;;16.00;51.80;;;;;;5072672;28;20455;-88
2022/04/14 02:22:16;;;;;;;8.90;6.40;;;16.10;51.40;;;;;;5076085;28;20471;-88
2022/04/14 02:24:43;;;;;;;11.27;6.63;;;16.10;51.10;;;;;;5088032;28;20463;-88
2022/04/14 02:27:12;;;;;;;6.47;5.60;;;16.10;50.50;;;;;;5079454;28;20483;-88
2022/04/14 02:29:40;;;;;;;10.87;6.50;;;16.20;50.80;;;;;;5071832;28;20460;-90
2022/04/14 02:32:33;;;;;;;10.40;6.77;;;16.10;50.70;;;;;;5093077;28;20959;-87
2022/04/14 02:35:04;;;;;;;6.43;5.80;;;16.20;50.60;;;;;;5091228;28;20452;-89
2022/04/14 02:37:32;;;;;;;7.47;5.50;;;16.10;50.50;;;;;;5086146;28;20466;-90
2022/04/14 02:42:49;;;;;;;7.00;6.27;;;15.90;50.70;;;;;;5092005;28;20467;-91
2022/04/14 02:45:16;;;;;;;11.07;6.50;;;15.70;51.30;;;;;;5059998;28;20904;-89
2022/04/14 02:47:45;;;;;;;8.13;7.17;;;15.60;51.40;;;;;;5081120;28;20853;-88
2022/04/14 02:50:16;;;;;;;9.07;6.47;;;15.60;51.60;;;;;;5060532;28;20817;-88
2022/04/14 02:52:44;;;;;;;13.07;6.93;;;15.60;51.70;;;;;;5084485;28;20487;-90
2022/04/14 02:55:12;;;;;;;12.17;6.63;;;15.30;52.80;;;;;;5077369;28;20533;-88
2022/04/14 02:57:41;;;;;;;10.53;6.57;;;15.20;53.70;;;;;;5081691;28;20459;-88
2022/04/14 03:03:02;;;;;;;9.60;7.10;;;15.30;53.00;;;;;;5087797;28;20482;-87
2022/04/14 03:05:30;;;;;;;10.37;6.67;;;15.50;52.20;;;;;;5077284;28;20439;-87
2022/04/14 03:07:57;;;;;;;7.43;6.50;;;15.60;51.80;;;;;;5093516;28;20456;-88
2022/04/14 03:10:24;;;;;;;7.90;6.40;;;15.60;51.90;;;;;;5094624;28;20742;-88
2022/04/14 03:12:51;;;;;;;7.87;6.50;;;15.50;51.90;;;;;;5099198;28;21260;-90
2022/04/14 03:15:18;;;;;;;15.13;6.90;;;15.30;52.10;;;;;;5093134;28;20443;-88
2022/04/14 03:17:45;;;;;;;9.10;6.77;;;15.40;52.10;;;;;;5075716;28;20456;-88
2022/04/14 03:20:20;;;;;;;6.90;6.20;;;15.40;52.00;;;;;;5091465;28;20505;-87
2022/04/14 03:22:47;;;;;;;9.20;7.70;;;15.50;51.50;;;;;;5095951;28;20517;-90
2022/04/14 03:25:14;;;;;;;9.33;8.40;;;15.50;51.50;;;;;;5075566;28;20459;-88
2022/04/14 03:27:42;;;;;;;15.13;9.60;;;15.50;51.30;;;;;;5084007;28;20459;-88
2022/04/14 03:30:11;;;;;;;9.90;7.97;;;15.50;51.30;;;;;;5089495;28;20454;-89
2022/04/14 03:32:42;;;;;;;11.47;6.80;;;15.50;51.10;;;;;;5074082;28;20450;-88
2022/04/14 03:35:10;;;;;;;7.37;6.43;;;15.40;51.40;;;;;;5072928;28;20673;-88
2022/04/14 03:37:39;;;;;;;8.60;6.33;;;15.40;51.80;;;;;;5083456;28;20541;-88
2022/04/14 03:40:07;;;;;;;9.60;6.47;;;15.40;51.40;;;;;;5083336;28;20805;-90
2022/04/14 03:42:35;;;;;;;10.93;7.10;;;15.10;52.20;;;;;;5081247;28;20519;-88
2022/04/14 03:45:03;;;;;;;9.93;6.90;;;15.10;52.50;;;;;;5058885;28;20455;-88
2022/04/14 03:47:30;;;;;;;9.47;7.60;;;15.10;52.10;;;;;;5066028;28;20466;-91
2022/04/14 03:49:57;;;;;;;12.43;9.30;;;15.20;51.60;;;;;;5073728;28;20450;-91
2022/04/14 03:52:24;;;;;;;12.27;9.93;;;15.20;51.30;;;;;;5085179;28;20798;-89
2022/04/14 03:54:52;;;;;;;12.70;9.50;;;15.30;51.10;;;;;;5066653;28;20458;-89
2022/04/14 03:57:19;;;;;;;11.57;8.07;;;15.20;50.90;;;;;;5075993;28;20566;-89
2022/04/14 03:59:46;;;;;;;9.13;7.07;;;15.20;50.60;;;;;;5089993;28;20432;-89
2022/04/14 04:02:13;;;;;;;9.60;7.63;;;15.10;50.70;;;;;;5095370;28;20471;-87
2022/04/14 04:04:40;;;;;;;10.10;8.53;;;15.10;51.30;;;;;;5096858;28;20443;-89
2022/04/14 04:07:07;;;;;;;15.37;9.57;;;15.00;51.90;;;;;;5089746;28;20474;-88
2022/04/14 04:09:34;;;;;;;10.90;8.50;;;14.90;52.10;;;;;;5092181;28;20464;-88
2022/04/14 04:12:03;;;;;;;14.73;10.10;;;14.90;52.40;;;;;;5087368;28;20986;-89
2022/04/14 04:14:30;;;;;;;17.73;12.07;;;14.80;52.40;;;;;;5083159;28;20531;-88
2022/04/14 04:16:57;;;;;;;12.63;8.93;;;14.70;52.90;;;;;;5057741;28;20464;-88
2022/04/14 04:19:23;;;;;;;15.10;9.33;;;14.80;52.30;;;;;;5092826;28;20443;-90
2022/04/14 04:21:50;;;;;;;9.83;8.60;;;14.90;51.80;;;;;;5094242;28;20475;-87
2022/04/14 04:24:17;;;;;;;11.33;9.47;;;14.90;51.60;;;;;;5101685;28;20542;-88
2022/04/14 04:26:44;;;;;;;15.73;9.77;;;15.00;51.60;;;;;;5102087;28;20463;-86
2022/04/14 04:29:13;;;;;;;11.17;8.77;;;15.00;51.40;;;;;;5086809;28;21099;-88
2022/04/14 04:31:40;;;;;;;16.13;10.40;;;15.00;51.40;;;;;;5065911;28;20455;-90
2022/04/14 04:34:07;;;;;;;12.70;8.57;;;15.00;51.30;;;;;;5088805;28;20443;-90
2022/04/14 04:36:34;;;;;;;12.90;8.70;;;15.00;51.20;;;;;;5083563;28;20559;-89
2022/04/14 04:39:01;;;;;;;10.33;8.97;;;15.00;51.20;;;;;;5056152;28;20976;-91
2022/04/14 04:41:29;;;;;;;11.47;9.20;;;15.00;51.30;;;;;;5088628;28;20447;-88
2022/04/14 04:43:56;;;;;;;10.50;8.63;;;15.00;51.20;;;;;;5059715;28;21128;-92
2022/04/14 04:46:24;;;;;;;15.53;8.70;;;15.00;51.20;;;;;;5075240;28;20483;-89
2022/04/14 04:48:51;;;;;;;12.10;8.23;;;15.00;51.20;;;;;;5073300;28;20943;-91
2022/04/14 04:51:18;;;;;;;11.37;8.93;;;15.00;51.30;;;;;;5101098;28;20966;-88
2022/04/14 04:53:45;;;;;;;10.00;8.50;;;15.00;51.40;;;;;;5058062;28;20439;-90
2022/04/14 04:56:13;;;;;;;15.17;10.20;;;15.00;51.30;;;;;;5074263;28;20444;-89
2022/04/14 04:58:40;;;;;;;17.33;12.10;;;15.00;51.40;;;;;;5089063;28;20456;-89
2022/04/14 05:01:06;;;;;;;19.97;13.97;;;15.10;51.50;;;;;;5087286;28;20818;-86
2022/04/14 05:03:35;;;;;;;21.53;13.47;;;15.00;51.50;;;;;;5086201;28;20475;-86
2022/04/14 05:06:02;;;;;;;17.53;12.80;;;15.00;51.70;;;;;;5084722;28;20444;-87
2022/04/14 05:08:28;;;;;;;17.90;12.17;;;15.00;52.00;;;;;;5088531;28;20981;-88
2022/04/14 05:10:56;;;;;;;13.70;10.53;;;15.00;52.30;;;;;;5062168;28;21013;-88
2022/04/14 05:13:23;;;;;;;15.83;10.33;;;15.00;52.90;;;;;;5073793;28;20478;-87
2022/04/14 05:15:50;;;;;;;12.97;9.60;;;15.00;52.30;;;;;;5084648;28;20467;-88
2022/04/14 05:18:17;;;;;;;10.83;8.60;;;15.10;52.40;;;;;;5064513;28;20543;-89
2022/04/14 05:20:45;;;;;;;11.37;7.40;;;15.00;52.90;;;;;;5070321;28;20463;-89
2022/04/14 05:23:12;;;;;;;14.13;9.97;;;15.00;53.20;;;;;;5071325;28;20456;-88
2022/04/14 05:25:40;;;;;;;17.53;12.30;;;15.00;53.30;;;;;;5080293;28;20440;-90
2022/04/14 05:28:07;;;;;;;18.50;11.17;;;15.00;53.20;;;;;;5067499;28;20464;-89
2022/04/14 05:30:34;;;;;;;19.30;13.80;;;15.00;53.50;;;;;;5084770;28;21104;-87
2022/04/14 05:33:01;;;;;;;20.80;13.43;;;15.00;53.30;;;;;;5085745;28;20548;-90
2022/04/14 05:35:28;;;;;;;22.23;13.37;;;15.00;53.30;;;;;;5053847;28;20907;-89
2022/04/14 05:37:56;;;;;;;21.63;13.93;;;15.00;53.30;;;;;;5086557;28;20471;-90
2022/04/14 05:40:23;;;;;;;25.80;10.57;;;15.10;53.40;;;;;;5073611;28;20451;-89
2022/04/14 05:42:52;;;;;;;8.77;6.70;;;15.10;53.50;;;;;;5070223;28;20455;-90
2022/04/14 05:45:21;;;;;;;15.03;7.13;;;15.10;53.70;;;;;;5065700;28;20451;-89
2022/04/14 05:47:48;;;;;;;12.53;6.83;;;15.00;54.00;;;;;;5053348;28;20475;-88
2022/04/14 05:50:15;;;;;;;15.90;8.03;;;14.80;54.60;;;;;;5080132;28;20448;-88
2022/04/14 05:52:42;;;;;;;8.20;6.50;;;14.60;55.30;;;;;;5083539;28;20614;-89
2022/04/14 05:55:11;;;;;;;8.00;7.27;;;14.60;55.10;;;;;;5068113;28;20516;-89
2022/04/14 05:57:38;;;;;;;7.53;6.83;;;14.70;55.00;;;;;;5084410;28;20465;-89
2022/04/14 06:00:06;;;;;;;9.10;6.63;;;14.80;54.80;;;;;;5080744;28;20448;-90
2022/04/14 06:02:33;;;;;;;9.60;7.30;;;14.90;54.60;;;;;;5075232;28;20539;-89
2022/04/14 06:05:00;;;;;;;9.10;8.20;;;15.00;54.40;;;;;;5068386;28;20451;-89
2022/04/14 06:07:27;;;;;;;11.23;8.37;;;14.70;55.00;;;;;;5056645;28;20461;-88
2022/04/14 06:09:54;;;;;;;10.77;8.07;;;14.70;55.20;;;;;;5092754;28;20919;-90
2022/04/14 06:12:22;;;;;;;15.90;11.03;;;14.60;55.40;;;;;;5083764;28;20991;-88
2022/04/14 06:14:49;;;;;;;11.17;10.13;;;14.80;55.40;;;;;;5091195;28;20458;-88
2022/04/14 06:17:16;;;;;;;10.40;8.93;;;15.00;55.20;;;;;;5068365;28;20466;-87
2022/04/14 06:19:43;;;;;;;10.13;8.80;;;15.10;54.80;;;;;;5096299;28;20941;-89
2022/04/14 06:22:10;;;;;;;9.10;7.23;;;14.80;55.60;;;;;;5076590;28;20454;-89
2022/04/14 06:24:37;;;;;;;10.33;7.73;;;14.90;56.00;;;;;;5088304;28;20926;-88
2022/04/14 06:27:05;;;;;;;9.77;7.90;;;15.00;55.70;;;;;;5060858;28;20467;-86
2022/04/14 06:29:34;;;;;;;10.50;7.93;;;15.10;55.30;;;;;;5090529;28;20440;-87
2022/04/14 06:32:01;;;;;;;17.90;8.63;;;15.10;55.30;;;;;;5100950;27;20830;-87
2022/04/14 06:34:28;;;;;;;11.03;8.93;;;15.10;55.40;;;;;;5088014;28;20454;-87
2022/04/14 06:36:54;;;;;;;11.73;8.60;;;15.30;55.90;;;;;;5069689;28;20474;-89
2022/04/14 06:39:21;;;;;;;11.87;8.90;;;15.50;54.70;;;;;;5087759;28;20565;-86
2022/04/14 06:41:48;;;;;;;12.03;8.67;;;15.60;54.50;;;;;;5076883;28;20447;-88
2022/04/14 06:44:16;;;;;;;11.13;8.30;;;15.60;54.50;;;;;;5088945;28;20479;-91
2022/04/14 06:46:44;;;;;;;9.50;8.53;;;15.50;54.60;;;;;;5072431;28;20544;-89
2022/04/14 06:49:11;;;;;;;12.63;8.47;;;15.60;54.70;;;;;;5064045;28;20451;-90
2022/04/14 06:51:38;;;;;;;9.73;8.30;;;15.50;54.90;;;;;;5064143;28;20442;-88
2022/04/14 06:54:05;;;;;;;11.87;9.77;;;15.60;55.40;;;;;;5053817;28;20462;-91
2022/04/14 06:56:32;;;;;;;10.73;9.57;;;15.50;54.90;;;;;;5062863;28;20463;-88
2022/04/14 06:58:59;;;;;;;16.00;7.80;;;15.70;55.40;;;;;;5086678;28;20808;-87
2022/04/14 07:01:26;;;;;;;9.00;7.27;;;15.70;55.20;;;;;;5092249;28;20688;-89
2022/04/14 07:03:54;;;;;;;12.10;8.80;;;15.80;55.10;;;;;;5069880;28;20474;-88
2022/04/14 07:06:21;;;;;;;19.30;8.30;;;15.90;55.10;;;;;;5090409;28;20459;-89
2022/04/14 07:08:49;;;;;;;10.83;8.77;;;16.00;55.00;;;;;;5089791;28;20436;-88
2022/04/14 07:11:17;;;;;;;11.50;8.53;;;16.10;54.80;;;;;;5090307;28;20443;-90
2022/04/14 07:13:44;;;;;;;41.63;18.53;;;15.80;55.20;;;;;;5087894;28;20535;-87
2022/04/14 07:16:11;;;;;;;23.17;10.40;;;15.70;55.60;;;;;;5087888;28;21150;-88
2022/04/14 07:18:38;;;;;;;18.33;9.37;;;15.70;56.10;;;;;;5075223;28;20559;-87
2022/04/14 07:21:06;;;;;;;17.80;9.57;;;15.80;55.80;;;;;;5085775;28;20447;-91
2022/04/14 07:23:33;;;;;;;15.50;10.73;;;16.00;55.60;;;;;;5090198;28;20548;-89
2022/04/14 07:26:00;;;;;;;9.80;8.20;;;16.20;55.30;;;;;;5063442;28;20451;-89
2022/04/14 07:28:27;;;;;;;16.20;12.67;;;16.30;54.90;;;;;;5087526;28;20428;-90
2022/04/14 07:30:54;;;;;;;99.97;20.07;;;16.50;54.50;;;;;;5090604;28;20451;-89
2022/04/14 07:33:21;;;;;;;17.03;11.07;;;16.70;54.30;;;;;;5091971;28;20455;-88
2022/04/14 07:35:50;;;;;;;18.67;11.33;;;17.00;54.30;;;;;;5091118;28;20439;-88
2022/04/14 07:38:18;;;;;;;16.33;9.40;;;17.20;54.10;;;;;;5090208;28;20471;-90
2022/04/14 07:40:45;;;;;;;9.63;8.00;;;17.30;53.60;;;;;;5085782;28;20448;-89
2022/04/14 07:43:12;;;;;;;9.00;7.20;;;17.20;53.40;;;;;;5062678;28;20456;-88
2022/04/14 07:45:42;;;;;;;10.40;7.87;;;17.20;53.80;;;;;;5088260;28;20448;-88
2022/04/14 07:48:09;;;;;;;11.50;7.43;;;17.20;53.70;;;;;;5087574;28;20843;-87
2022/04/14 07:50:36;;;;;;;8.73;6.60;;;17.30;53.20;;;;;;5063194;28;20455;-91
2022/04/14 07:53:04;;;;;;;6.87;6.17;;;17.40;52.70;;;;;;5089219;28;21082;-88
2022/04/14 07:55:35;;;;;;;8.93;7.23;;;17.60;52.30;;;;;;5069286;28;20496;-89
2022/04/14 07:58:06;;;;;;;9.27;7.93;;;17.60;52.30;;;;;;5094712;28;20554;-88
2022/04/14 08:00:34;;;;;;;11.10;8.10;;;17.90;52.30;;;;;;5074392;28;21106;-86
2022/04/14 08:03:03;;;;;;;10.40;7.00;;;18.10;51.80;;;;;;5071248;28;20480;-89
2022/04/14 08:05:33;;;;;;;8.30;7.23;;;18.40;52.10;;;;;;5071836;28;20461;-88
2022/04/14 08:08:00;;;;;;;10.50;8.60;;;18.50;52.10;;;;;;5076698;28;20973;-87
2022/04/14 08:10:27;;;;;;;8.90;7.33;;;18.80;52.30;;;;;;5083700;28;20551;-88
2022/04/14 08:12:56;;;;;;;8.33;7.50;;;18.90;52.00;;;;;;5085967;28;20438;-88
2022/04/14 08:15:23;;;;;;;13.13;7.70;;;18.80;51.70;;;;;;5068527;28;20972;-88
2022/04/14 08:17:50;;;;;;;10.20;8.60;;;18.80;52.00;;;;;;5088413;28;20562;-89
2022/04/14 08:20:18;;;;;;;13.13;8.67;;;18.90;52.70;;;;;;5086489;28;20692;-89
2022/04/14 08:22:50;;;;;;;14.80;9.60;;;19.20;52.50;;;;;;5095495;28;20463;-90
2022/04/14 08:25:20;;;;;;;14.70;9.07;;;19.30;52.50;;;;;;5087034;28;20451;-88
2022/04/14 08:27:48;;;;;;;17.33;10.30;;;19.40;52.50;;;;;;5088290;28;20558;-88
2022/04/14 08:30:19;;;;;;;16.70;10.17;;;19.50;52.80;;;;;;5051527;28;20475;-89
2022/04/14 08:32:46;;;;;;;13.03;9.07;;;19.70;52.40;;;;;;5083621;28;20459;-88
2022/04/14 08:35:14;;;;;;;14.20;10.13;;;19.90;52.20;;;;;;5082650;28;20443;-89
2022/04/14 08:37:41;;;;;;;14.07;10.47;;;19.90;52.80;;;;;;5086212;28;20471;-89
2022/04/14 08:40:14;;;;;;;12.93;9.07;;;20.00;52.30;;;;;;5086025;28;20503;-91
2022/04/14 08:42:43;;;;;;;14.73;9.23;;;20.10;52.40;;;;;;5100945;27;20448;-88
2022/04/14 08:45:12;;;;;;;14.80;10.70;;;20.30;52.40;;;;;;5083210;28;20981;-88
2022/04/14 08:47:41;;;;;;;20.77;10.50;;;20.50;52.30;;;;;;5086261;28;20479;-90
2022/04/14 08:50:14;;;;;;;16.33;10.90;;;20.50;51.60;;;;;;5084356;28;20451;-88
2022/04/14 08:52:42;;;;;;;15.53;10.53;;;20.60;51.80;;;;;;5068630;28;20462;-87
2022/04/14 08:55:12;;;;;;;15.83;10.23;;;20.70;51.70;;;;;;5050482;28;20559;-88
2022/04/14 08:57:41;;;;;;;19.00;10.83;;;20.90;51.60;;;;;;5086069;28;20570;-88
2022/04/14 09:00:34;;;;;;;15.87;11.37;;;21.00;51.30;;;;;;5082873;28;20450;-91
2022/04/14 09:03:04;;;;;;;21.73;11.87;;;21.20;51.20;;;;;;5069340;28;20456;-88
2022/04/14 09:05:31;;;;;;;14.87;10.50;;;21.30;49.90;;;;;;5083846;28;20456;-89
2022/04/14 09:07:59;;;;;;;14.03;10.10;;;21.40;50.10;;;;;;5086093;28;21247;-89
2022/04/14 09:10:27;;;;;;;21.37;11.10;;;21.40;50.00;;;;;;5082587;28;20454;-89
2022/04/14 09:12:55;;;;;;;10.27;9.20;;;21.50;50.80;;;;;;5068453;28;20466;-89
2022/04/14 09:15:23;;;;;;;14.30;10.93;;;21.80;50.00;;;;;;5085664;28;20451;-89
2022/04/14 09:17:50;;;;;;;17.20;9.90;;;22.00;49.60;;;;;;5085577;28;20527;-89
2022/04/14 09:20:32;;;;;;;14.40;9.67;;;22.10;48.40;;;;;;5069941;28;20487;-91
2022/04/14 09:23:20;;;;;;;17.43;11.40;;;22.10;48.00;;;;;;5086504;28;20448;-88
2022/04/14 09:25:48;;;;;;;17.70;11.87;;;22.30;48.10;;;;;;5094797;28;21256;-91
2022/04/14 09:28:16;;;;;;;20.03;11.93;;;22.50;47.70;;;;;;5059376;28;20458;-90
2022/04/14 09:30:59;;;;;;;20.90;12.67;;;22.50;48.00;;;;;;5074762;28;20450;-89
2022/04/14 09:33:26;;;;;;;16.53;11.67;;;22.50;47.10;;;;;;5082821;28;20443;-88
2022/04/14 09:39:01;;;;;;;19.10;11.07;;;22.60;46.50;;;;;;5074771;28;20447;-88
2022/04/14 09:41:32;;;;;;;16.03;11.60;;;22.40;46.20;;;;;;5086522;28;21258;-89
2022/04/14 09:44:02;;;;;;;16.07;11.37;;;22.50;46.20;;;;;;5084185;28;20502;-89
2022/04/14 09:46:29;;;;;;;15.37;11.47;;;22.60;45.80;;;;;;5088304;28;20450;-89
2022/04/14 09:49:03;;;;;;;16.20;10.67;;;22.70;45.80;;;;;;5087225;28;20439;-87
2022/04/14 09:51:33;;;;;;;17.30;10.33;;;22.90;45.00;;;;;;5087106;28;20542;-88
2022/04/14 09:54:15;;;;;;;18.73;10.87;;;23.10;45.00;;;;;;5087106;28;20468;-86
2022/04/14 09:56:48;;;;;;;18.93;11.47;;;23.40;44.60;;;;;;5089022;28;20466;-86
2022/04/14 09:59:16;;;;;;;14.57;11.47;;;23.60;43.40;;;;;;5086707;28;20444;-89
2022/04/14 10:01:44;;;;;;;17.57;11.40;;;23.80;43.00;;;;;;5080815;28;20553;-89
2022/04/14 10:04:30;;;;;;;12.73;10.47;;;24.00;42.50;;;;;;5091254;28;20470;-88
2022/04/14 10:07:11;;;;;;;12.67;9.93;;;24.10;43.00;;;;;;5088591;28;21055;-89
2022/04/14 10:09:40;;;;;;;11.07;8.53;;;24.40;42.40;;;;;;5081984;28;20500;-89
2022/04/14 10:12:30;;;;;;;11.87;9.73;;;24.50;41.90;;;;;;5075483;28;20452;-88
2022/04/14 10:15:09;;;;;;;13.67;9.60;;;24.70;42.20;;;;;;5072361;28;20962;-87
2022/04/14 10:17:38;;;;;;;13.70;9.43;;;24.60;42.10;;;;;;5089288;28;20471;-90
2022/04/14 10:20:07;;;;;;;13.47;10.33;;;24.60;41.20;;;;;;5086786;28;21279;-87
2022/04/14 10:22:37;;;;;;;17.77;10.00;;;24.50;41.10;;;;;;5088635;28;20450;-88
2022/04/14 10:25:07;;;;;;;13.47;9.10;;;24.60;41.20;;;;;;5079558;28;20463;-88
2022/04/14 10:27:37;;;;;;;12.20;10.10;;;24.80;41.40;;;;;;5066431;28;20471;-87
2022/04/14 10:30:05;;;;;;;17.00;8.87;;;25.00;40.80;;;;;;5088966;28;21064;-87
2022/04/14 10:32:35;;;;;;;16.90;8.77;;;25.00;40.90;;;;;;5091058;28;20527;-86
2022/04/14 10:35:03;;;;;;;13.70;10.20;;;24.90;40.50;;;;;;5089599;28;20443;-87
2022/04/14 10:37:35;;;;;;;13.97;9.20;;;24.80;40.50;;;;;;5091671;28;20480;-87
2022/04/14 10:40:03;;;;;;;16.13;8.80;;;25.00;41.70;;;;;;5092819;28;20943;-88
2022/04/14 10:42:31;;;;;;;16.10;9.73;;;25.40;40.60;;;;;;5089843;28;20964;-88
2022/04/14 10:44:58;;;;;;;11.03;8.10;;;25.50;39.80;;;;;;5092672;28;20472;-88
2022/04/14 10:47:54;;;;;;;14.33;9.87;;;25.50;40.60;;;;;;5056632;28;20477;-88
2022/04/14 10:50:22;;;;;;;12.10;8.50;;;25.40;40.10;;;;;;5091822;28;20447;-87
2022/04/14 10:53:03;;;;;;;18.70;9.93;;;25.80;40.00;;;;;;5089929;28;20456;-87
2022/04/14 10:55:43;;;;;;;14.53;9.60;;;26.00;39.40;;;;;;5091341;28;20451;-87
2022/04/14 10:58:53;;;;;;;10.10;8.70;;;26.00;39.30;;;;;;5089621;28;20474;-87
2022/04/14 11:01:53;;;;;;;12.63;9.97;;;26.00;39.10;;;;;;5064003;28;21029;-88
2022/04/14 11:04:25;;;;;;;11.43;8.83;;;25.60;39.80;;;;;;5089403;28;20468;-89
2022/04/14 11:06:57;;;;;;;10.80;9.07;;;25.60;40.00;;;;;;5089833;28;20475;-87
2022/04/14 11:09:49;;;;;;;19.33;9.83;;;25.70;40.30;;;;;;5091656;28;20992;-88
2022/04/14 11:12:19;;;;;;;12.40;8.50;;;25.80;39.90;;;;;;5069700;28;20458;-87
2022/04/14 11:14:48;;;;;;;11.90;8.43;;;25.60;39.60;;;;;;5092366;28;20435;-87
2022/04/14 11:18:00;;;;;;;10.53;8.97;;;25.80;40.40;;;;;;5083638;28;20475;-87
2022/04/14 11:20:52;;;;;;;12.67;9.27;;;25.80;39.70;;;;;;5092163;28;20458;-87
2022/04/14 11:23:21;;;;;;;11.43;8.60;;;25.90;39.40;;;;;;5090886;28;20439;-87
2022/04/14 11:25:49;;;;;;;12.30;8.90;;;26.00;39.10;;;;;;5093198;28;20487;-87
2022/04/14 11:28:25;;;;;;;12.63;9.63;;;25.90;39.50;;;;;;5087576;28;20463;-87
2022/04/14 11:30:53;;;;;;;12.67;9.40;;;25.70;39.60;;;;;;5086524;28;20461;-87
2022/04/14 11:33:33;;;;;;;12.77;9.47;;;25.70;39.50;;;;;;5090591;28;20939;-87
2022/04/14 11:36:11;;;;;;;19.10;8.33;;;26.10;39.10;;;;;;5089074;28;20466;-89
2022/04/14 11:38:53;;;;;;;17.50;9.87;;;26.10;39.40;;;;;;5092671;28;20443;-87
2022/04/14 11:41:50;;;;;;;12.03;8.70;;;26.40;38.50;;;;;;5083669;28;20493;-89
2022/04/14 11:44:20;;;;;;;12.47;9.43;;;26.50;39.20;;;;;;5076987;28;20482;-88
2022/04/14 11:46:49;;;;;;;15.40;8.17;;;26.50;38.20;;;;;;5091722;28;21087;-87
2022/04/14 11:49:19;;;;;;;17.67;8.73;;;26.50;39.20;;;;;;5091484;28;21229;-89
2022/04/14 11:51:48;;;;;;;12.17;8.37;;;26.70;38.80;;;;;;5088859;28;20838;-87
2022/04/14 11:54:21;;;;;;;12.00;8.30;;;26.80;39.10;;;;;;5087447;28;20444;-89
2022/04/14 11:56:52;;;;;;;10.47;7.17;;;26.60;37.90;;;;;;5098034;28;20502;-88
2022/04/14 11:59:30;;;;;;;9.30;8.00;;;26.40;38.70;;;;;;5087748;28;20957;-88
2022/04/14 12:02:01;;;;;;;9.83;6.30;;;26.40;38.70;;;;;;5071884;28;20475;-87
2022/04/14 12:04:28;;;;;;;11.20;8.23;;;26.50;39.00;;;;;;5093845;28;20494;-86
2022/04/14 12:06:56;;;;;;;9.80;7.57;;;26.50;38.40;;;;;;5056672;28;20463;-87
2022/04/14 12:09:25;;;;;;;9.50;7.83;;;26.60;38.00;;;;;;5077068;28;20784;-87
2022/04/14 12:11:53;;;;;;;10.33;8.80;;;26.50;37.90;;;;;;5073056;28;20482;-89
2022/04/14 12:14:22;;;;;;;9.03;7.73;;;26.50;38.10;;;;;;5091067;28;20549;-87
2022/04/14 12:16:50;;;;;;;9.47;6.80;;;26.50;39.10;;;;;;5099291;28;20486;-89
2022/04/14 12:19:17;;;;;;;9.83;7.30;;;26.60;39.80;;;;;;5075414;28;20866;-88
2022/04/14 12:21:44;;;;;;;9.83;6.77;;;26.60;38.60;;;;;;5091232;28;20898;-90
2022/04/14 12:24:11;;;;;;;7.63;6.30;;;26.20;39.10;;;;;;5091575;28;20470;-86
2022/04/14 12:26:40;;;;;;;7.20;6.23;;;26.20;40.40;;;;;;5088334;28;20640;-88
2022/04/14 12:29:10;;;;;;;7.47;5.93;;;26.40;38.40;;;;;;5088023;28;20539;-86
2022/04/14 12:31:38;;;;;;;12.07;7.33;;;26.20;39.30;;;;;;5090852;28;20446;-89
2022/04/14 12:34:10;;;;;;;11.73;8.10;;;26.00;40.30;;;;;;5090428;28;20455;-87
2022/04/14 12:36:39;;;;;;;8.90;7.33;;;26.00;40.10;;;;;;5087750;28;20471;-88
2022/04/14 12:39:07;;;;;;;11.03;7.73;;;26.20;40.20;;;;;;5074136;28;21091;-87
2022/04/14 12:41:36;;;;;;;9.83;6.90;;;26.30;39.60;;;;;;5092786;28;20447;-87
2022/04/14 12:44:03;;;;;;;7.47;6.40;;;26.20;39.60;;;;;;5082956;28;20462;-87
2022/04/14 12:46:36;;;;;;;9.60;7.80;;;26.10;39.80;;;;;;5080877;28;20714;-89
2022/04/14 12:49:10;;;;;;;9.10;8.17;;;25.90;40.20;;;;;;5082466;28;20453;-88
2022/04/14 12:51:39;;;;;;;10.50;6.90;;;25.80;40.30;;;;;;5084268;28;20969;-88
2022/04/14 12:54:07;;;;;;;8.00;7.07;;;25.70;40.20;;;;;;5085084;28;20509;-87
2022/04/14 12:56:36;;;;;;;12.50;7.47;;;25.90;40.20;;;;;;5076967;28;20494;-89
2022/04/14 12:59:15;;;;;;;7.83;6.93;;;25.90;39.80;;;;;;5085053;28;20465;-86